createdAt,value
2018-05-09T00:00:13.376Z,23.6
2018-05-09T00:01:03.627Z,23.6
2018-05-09T00:01:53.430Z,23.6
2018-05-09T00:02:44.300Z,23.5
2018-05-09T00:03:34.143Z,23.5
2018-05-09T00:04:23.975Z,23.6
2018-05-09T00:05:14.487Z,23.5
2018-05-09T00:06:04.558Z,23.5
2018-05-09T00:06:54.309Z,23.6
2018-05-09T00:07:44.378Z,23.5
2018-05-09T00:08:34.742Z,23.6
2018-05-09T00:09:23.963Z,23.5
2018-05-09T00:10:14.976Z,23.5
2018-05-09T00:11:04.678Z,23.5
2018-05-09T00:11:55.264Z,23.5
2018-05-09T00:12:44.203Z,23.5
2018-05-09T00:13:34.848Z,23.5
2018-05-09T00:14:25.196Z,23.5
2018-05-09T00:15:14.740Z,23.5
2018-05-09T00:16:05.038Z,23.5
2018-05-09T00:16:55.137Z,23.5
2018-05-09T00:17:45.454Z,23.5
2018-05-09T00:18:35.240Z,23.5
2018-05-09T00:19:24.752Z,23.5
2018-05-09T00:20:15.084Z,23.5
2018-05-09T00:21:05.132Z,23.5
2018-05-09T00:21:55.490Z,23.5
2018-05-09T00:22:45.850Z,23.5
2018-05-09T00:23:35.458Z,23.5
2018-05-09T00:24:25.435Z,23.5
2018-05-09T00:25:15.836Z,23.5
2018-05-09T00:26:05.002Z,23.5
2018-05-09T00:26:55.910Z,23.5
2018-05-09T00:27:45.382Z,23.5
2018-05-09T00:28:36.035Z,23.5
2018-05-09T00:29:25.603Z,23.5
2018-05-09T00:30:16.155Z,23.5
2018-05-09T00:31:06.209Z,23.5
2018-05-09T00:31:56.000Z,23.5
2018-05-09T00:32:45.835Z,23.5
2018-05-09T00:33:36.406Z,23.5
2018-05-09T00:34:26.701Z,23.5
2018-05-09T00:35:16.537Z,23.5
2018-05-09T00:36:06.322Z,23.5
2018-05-09T00:36:56.642Z,23.5
2018-05-09T00:37:46.478Z,23.5
2018-05-09T00:38:36.267Z,23.5
2018-05-09T00:39:26.587Z,23.5
2018-05-09T00:40:16.897Z,23.5
2018-05-09T00:41:06.996Z,23.5
2018-05-09T00:41:57.066Z,23.5
2018-05-09T00:42:47.109Z,23.5
2018-05-09T00:43:37.188Z,23.5
2018-05-09T00:44:27.560Z,23.5
2018-05-09T00:45:16.749Z,23.5
2018-05-09T00:46:07.458Z,23.5
2018-05-09T00:46:57.154Z,23.5
2018-05-09T00:47:47.788Z,23.5
2018-05-09T00:48:37.580Z,23.5
2018-05-09T00:49:27.937Z,23.5
2018-05-09T00:50:18.359Z,23.5
2018-05-09T00:51:06.907Z,23.5
2018-05-09T00:51:57.572Z,23.5
2018-05-09T00:52:47.996Z,23.5
2018-05-09T00:53:37.923Z,23.4
2018-05-09T00:54:28.016Z,23.4
2018-05-09T00:55:17.813Z,23.5
2018-05-09T00:56:08.141Z,23.4
2018-05-09T00:56:58.583Z,23.4
2018-05-09T00:57:48.045Z,23.5
2018-05-09T00:58:37.783Z,23.4
2018-05-09T00:59:27.550Z,23.4
2018-05-09T01:00:18.756Z,23.4
2018-05-09T01:01:08.496Z,23.4
2018-05-09T01:01:58.894Z,23.4
2018-05-09T01:02:48.658Z,23.4
2018-05-09T01:03:38.547Z,23.4
2018-05-09T01:04:28.756Z,23.4
2018-05-09T01:05:18.813Z,23.4
2018-05-09T01:06:09.161Z,23.4
2018-05-09T01:06:59.219Z,23.4
2018-05-09T01:07:48.201Z,23.4
2018-05-09T01:08:38.238Z,23.4
2018-05-09T01:09:29.168Z,23.4
2018-05-09T01:10:18.899Z,23.4
2018-05-09T01:11:09.610Z,23.4
2018-05-09T01:11:59.353Z,23.4
2018-05-09T01:12:48.557Z,23.4
2018-05-09T01:13:39.170Z,23.4
2018-05-09T01:14:29.552Z,23.4
2018-05-09T01:15:19.047Z,23.4
2018-05-09T01:16:09.652Z,23.4
2018-05-09T01:16:59.698Z,23.4
2018-05-09T01:17:49.886Z,23.4
2018-05-09T01:18:39.849Z,23.4
2018-05-09T01:19:29.955Z,23.4
2018-05-09T01:20:19.768Z,23.4
2018-05-09T01:21:10.339Z,23.4
2018-05-09T01:22:00.125Z,23.4
2018-05-09T01:22:49.615Z,23.4
2018-05-09T01:23:40.505Z,23.4
2018-05-09T01:24:29.833Z,23.4
2018-05-09T01:25:20.353Z,23.4
2018-05-09T01:26:10.242Z,23.4
2018-05-09T01:27:00.802Z,23.4
2018-05-09T01:27:49.992Z,23.4
2018-05-09T01:28:40.873Z,23.4
2018-05-09T01:29:29.907Z,23.4
2018-05-09T01:30:21.027Z,23.4
2018-05-09T01:31:10.815Z,23.4
2018-05-09T01:32:00.932Z,23.4
2018-05-09T01:32:51.219Z,23.4
2018-05-09T01:33:41.297Z,23.4
2018-05-09T01:34:31.424Z,23.4
2018-05-09T01:35:21.162Z,23.4
2018-05-09T01:36:10.634Z,23.4
2018-05-09T01:37:01.275Z,23.4
2018-05-09T01:37:50.784Z,23.4
2018-05-09T01:38:41.104Z,23.4
2018-05-09T01:39:31.490Z,23.4
2018-05-09T01:40:21.538Z,23.4
2018-05-09T01:41:10.461Z,23.4
2018-05-09T01:42:01.718Z,23.4
2018-05-09T01:42:51.736Z,23.4
2018-05-09T01:43:42.062Z,23.4
2018-05-09T01:44:31.021Z,23.4
2018-05-09T01:45:21.644Z,23.4
2018-05-09T01:46:12.021Z,23.4
2018-05-09T01:47:02.036Z,23.4
2018-05-09T01:47:52.121Z,23.4
2018-05-09T01:48:42.214Z,23.4
2018-05-09T01:49:31.676Z,23.4
2018-05-09T01:50:21.489Z,23.4
2018-05-09T01:51:11.219Z,23.4
2018-05-09T01:52:02.460Z,23.4
2018-05-09T01:52:52.558Z,23.4
2018-05-09T01:53:42.628Z,23.4
2018-05-09T01:54:32.886Z,23.4
2018-05-09T01:55:22.480Z,23.4
2018-05-09T01:56:12.753Z,23.4
2018-05-09T01:57:02.548Z,23.4
2018-05-09T01:57:52.683Z,23.4
2018-05-09T01:58:42.612Z,23.4
2018-05-09T01:59:33.029Z,23.4
2018-05-09T02:00:23.310Z,23.4
2018-05-09T02:01:13.459Z,23.3
2018-05-09T02:02:03.490Z,23.3
2018-05-09T02:02:53.234Z,23.3
2018-05-09T02:03:43.575Z,23.4
2018-05-09T02:04:33.352Z,23.3
2018-05-09T02:05:23.154Z,23.4
2018-05-09T02:06:15.174Z,23.3
2018-05-09T02:07:03.342Z,23.3
2018-05-09T02:07:53.913Z,23.3
2018-05-09T02:08:43.690Z,23.3
2018-05-09T02:09:33.758Z,23.3
2018-05-09T02:10:24.195Z,23.3
2018-05-09T02:11:13.881Z,23.3
2018-05-09T02:12:03.952Z,23.3
2018-05-09T02:12:54.316Z,23.3
2018-05-09T02:13:44.086Z,23.3
2018-05-09T02:14:33.899Z,23.3
2018-05-09T02:15:24.210Z,23.3
2018-05-09T02:16:14.327Z,23.3
2018-05-09T02:17:04.629Z,23.3
2018-05-09T02:17:54.418Z,23.3
2018-05-09T02:18:44.186Z,23.3
2018-05-09T02:19:34.499Z,23.3
2018-05-09T02:20:24.057Z,23.3
2018-05-09T02:21:14.917Z,23.3
2018-05-09T02:22:05.004Z,23.3
2018-05-09T02:22:54.756Z,23.3
2018-05-09T02:23:44.874Z,23.3
2018-05-09T02:24:35.173Z,23.3
2018-05-09T02:25:24.749Z,23.3
2018-05-09T02:26:15.323Z,23.3
2018-05-09T02:27:05.118Z,23.3
2018-05-09T02:27:55.487Z,23.3
2018-05-09T02:28:45.523Z,23.3
2018-05-09T02:29:35.017Z,23.3
2018-05-09T02:30:25.089Z,23.3
2018-05-09T02:31:16.413Z,23.3
2018-05-09T02:32:05.246Z,23.3
2018-05-09T02:32:55.301Z,23.3
2018-05-09T02:33:45.396Z,23.3
2018-05-09T04:37:22.273Z,23.2
2018-05-09T04:38:12.345Z,23.2
2018-05-09T04:39:01.498Z,23.2
2018-05-09T04:39:52.389Z,23.2
2018-05-09T04:40:42.526Z,23.2
2018-05-09T04:41:31.606Z,23.2
2018-05-09T04:42:22.291Z,23.2
2018-05-09T04:43:12.592Z,23.2
2018-05-09T04:44:02.086Z,23.3
2018-05-09T04:44:52.512Z,23.2
2018-05-09T04:45:42.298Z,23.2
2018-05-09T04:46:32.643Z,23.2
2018-05-09T04:47:23.004Z,23.3
2018-05-09T04:48:12.972Z,23.3
2018-05-09T04:49:03.015Z,23.3
2018-05-09T04:49:53.086Z,23.3
2018-05-09T04:50:43.164Z,23.2
2018-05-09T04:51:32.956Z,23.3
2018-05-09T04:52:23.277Z,23.2
2018-05-09T04:53:13.042Z,23.3
2018-05-09T04:54:03.420Z,23.3
2018-05-09T04:54:52.905Z,23.3
2018-05-09T04:55:45.708Z,23.3
2018-05-09T04:56:33.310Z,23.3
2018-05-09T04:57:23.088Z,23.3
2018-05-09T04:58:12.854Z,23.3
2018-05-09T04:59:02.965Z,23.3
2018-05-09T04:59:53.538Z,23.3
2018-05-09T05:00:43.908Z,23.3
2018-05-09T05:01:33.697Z,23.3
2018-05-09T05:02:23.763Z,23.3
2018-05-09T05:03:13.815Z,23.3
2018-05-09T05:04:04.144Z,23.3
2018-05-09T05:04:54.239Z,23.3
2018-05-09T05:05:43.749Z,23.3
2018-05-09T05:06:34.332Z,23.3
2018-05-09T05:07:24.184Z,23.3
2018-05-09T05:08:14.212Z,23.3
2018-05-09T05:09:04.253Z,23.3
2018-05-09T05:09:54.544Z,23.3
2018-05-09T05:10:44.331Z,23.3
2018-05-09T05:11:34.413Z,23.3
2018-05-09T05:12:23.698Z,23.3
2018-05-09T05:13:14.793Z,23.3
2018-05-09T05:14:04.639Z,23.3
2018-05-09T05:14:54.654Z,23.3
2018-05-09T05:15:45.359Z,23.3
2018-05-09T05:16:35.059Z,23.3
2018-05-09T05:17:24.622Z,23.3
2018-05-09T05:18:14.636Z,23.3
2018-05-09T05:19:04.415Z,23.3
2018-05-09T05:19:55.383Z,23.3
2018-05-09T05:20:45.078Z,23.3
2018-05-09T05:21:35.113Z,23.3
2018-05-09T05:22:24.934Z,23.3
2018-05-09T05:23:15.004Z,23.3
2018-05-09T05:24:05.085Z,23.3
2018-05-09T05:24:55.399Z,23.3
2018-05-09T05:25:45.777Z,23.3
2018-05-09T05:26:35.112Z,23.3
2018-05-09T05:27:25.629Z,23.3
2018-05-09T05:28:15.383Z,23.3
2018-05-09T05:29:05.748Z,23.3
2018-05-09T05:29:56.132Z,23.3
2018-05-09T05:30:45.830Z,23.3
2018-05-09T05:31:36.217Z,23.3
2018-05-09T05:32:25.672Z,23.3
2018-05-09T05:33:16.033Z,23.3
2018-05-09T05:34:06.047Z,23.3
2018-05-09T05:34:55.590Z,23.3
2018-05-09T05:35:46.194Z,23.3
2018-05-09T05:36:36.312Z,23.2
2018-05-09T05:37:26.593Z,23.2
2018-05-09T05:38:16.193Z,23.2
2018-05-09T05:39:06.737Z,23.2
2018-05-09T05:39:56.499Z,23.2
2018-05-09T05:40:46.847Z,23.2
2018-05-09T05:41:36.429Z,23.1
2018-05-09T05:42:26.443Z,23.1
2018-05-09T05:43:16.764Z,23.1
2018-05-09T05:44:06.868Z,23.1
2018-05-09T05:44:56.975Z,23.1
2018-05-09T05:45:46.716Z,23.1
2018-05-09T05:46:36.815Z,23.1
2018-05-09T05:47:26.788Z,23.1
2018-05-09T05:48:17.474Z,23.1
2018-05-09T05:49:06.128Z,23.1
2018-05-09T05:49:57.554Z,23.1
2018-05-09T05:50:47.667Z,23.1
2018-05-09T05:51:37.704Z,23.1
2018-05-09T05:52:26.608Z,23.1
2018-05-09T05:53:17.045Z,23.1
2018-05-09T05:54:07.386Z,23.1
2018-05-09T05:54:57.670Z,23.1
2018-05-09T05:55:47.987Z,23.1
2018-05-09T05:56:37.730Z,23.1
2018-05-09T05:57:27.788Z,23.1
2018-05-09T05:58:18.191Z,23.1
2018-05-09T05:59:08.237Z,23.1
2018-05-09T05:59:57.764Z,23.1
2018-05-09T06:00:48.359Z,23.1
2018-05-09T06:01:37.921Z,23.1
2018-05-09T06:02:28.195Z,23.1
2018-05-09T06:03:17.507Z,23.1
2018-05-09T06:04:08.312Z,23.1
2018-05-09T06:04:58.401Z,23.1
2018-05-09T06:05:48.471Z,23.1
2018-05-09T06:06:38.270Z,23.1
2018-05-09T06:07:27.805Z,23.1
2018-05-09T06:08:18.628Z,23.1
2018-05-09T06:09:08.242Z,23.1
2018-05-09T06:09:58.570Z,23.1
2018-05-09T06:10:48.281Z,23.1
2018-05-09T06:11:38.657Z,23.1
2018-05-09T06:12:29.262Z,23.1
2018-05-09T06:13:19.031Z,23.1
2018-05-09T06:14:08.804Z,23.1
2018-05-09T06:14:58.561Z,23.1
2018-05-09T06:15:48.909Z,23.1
2018-05-09T06:16:39.367Z,23.1
2018-05-09T06:17:29.371Z,23.1
2018-05-09T06:18:19.376Z,23.1
2018-05-09T06:19:09.464Z,23.1
2018-05-09T06:19:59.488Z,23.1
2018-05-09T06:20:49.618Z,23.1
2018-05-09T06:21:39.670Z,23.1
2018-05-09T06:22:29.472Z,23.1
2018-05-09T06:23:19.308Z,23.1
2018-05-09T06:24:11.144Z,23.1
2018-05-09T06:24:59.963Z,23.1
2018-05-09T06:25:49.981Z,23
2018-05-09T06:26:39.750Z,23
2018-05-09T06:27:30.136Z,23
2018-05-09T06:28:20.181Z,23.1
2018-05-09T06:29:10.249Z,23.1
2018-05-09T06:30:00.318Z,23.1
2018-05-09T06:30:50.920Z,23
2018-05-09T06:31:40.141Z,23.1
2018-05-09T06:32:30.301Z,23
2018-05-09T06:33:20.011Z,23
2018-05-09T06:34:10.533Z,23.1
2018-05-09T06:35:00.703Z,23.1
2018-05-09T06:35:50.195Z,23.1
2018-05-09T06:36:40.541Z,23.1
2018-05-09T06:37:31.149Z,23.1
2018-05-09T06:38:21.223Z,23.1
2018-05-09T06:39:10.228Z,23
2018-05-09T06:40:01.407Z,23.1
2018-05-09T06:40:50.937Z,23.1
2018-05-09T06:41:41.742Z,23
2018-05-09T06:42:30.932Z,23.1
2018-05-09T06:43:21.321Z,23.1
2018-05-09T06:44:10.250Z,23.1
2018-05-09T06:45:00.891Z,23.1
2018-05-09T06:45:50.930Z,23.1
2018-05-09T06:46:41.144Z,23.1
2018-05-09T06:47:31.732Z,23.1
2018-05-09T06:48:22.009Z,23.1
2018-05-09T06:49:11.750Z,23.1
2018-05-09T06:50:02.651Z,23.1
2018-05-09T06:50:51.897Z,23.1
2018-05-09T06:51:41.701Z,23.1
2018-05-09T06:52:31.761Z,23.1
2018-05-09T06:53:21.269Z,23.1
2018-05-09T06:54:10.839Z,23.1
2018-05-09T06:55:02.245Z,23.1
2018-05-09T06:55:51.790Z,23.1
2018-05-09T06:56:42.045Z,23.1
2018-05-09T06:57:32.128Z,23.1
2018-05-09T06:58:22.210Z,23.1
2018-05-09T06:59:13.061Z,23.1
2018-05-09T07:00:02.619Z,23.1
2018-05-09T07:00:52.484Z,23.1
2018-05-09T07:01:42.517Z,23.1
2018-05-09T07:02:33.068Z,23.1
2018-05-09T07:03:22.661Z,23.1
2018-05-09T07:04:13.217Z,23.1
2018-05-09T07:05:03.009Z,23.1
2018-05-09T07:05:53.034Z,23.1
2018-05-09T07:06:48.768Z,23.1
2018-05-09T07:07:32.880Z,23.1
2018-05-09T07:08:23.274Z,23.1
2018-05-09T07:09:13.293Z,23.1
2018-05-09T07:10:02.790Z,23.1
2018-05-09T07:10:53.835Z,23.2
2018-05-09T07:11:43.053Z,23.2
2018-05-09T07:12:33.640Z,23.2
2018-05-09T07:13:23.645Z,23.2
2018-05-09T07:14:13.778Z,23.2
2018-05-09T07:15:04.003Z,23.2
2018-05-09T07:15:53.555Z,23.2
2018-05-09T07:16:43.860Z,23.2
2018-05-09T07:17:33.639Z,23.2
2018-05-09T07:18:23.694Z,23.2
2018-05-09T07:19:13.824Z,23.2
2018-05-09T07:20:03.834Z,23.2
2018-05-09T07:20:53.927Z,23.3
2018-05-09T07:21:43.949Z,23.3
2018-05-09T07:22:34.056Z,23.3
2018-05-09T07:23:24.347Z,23.3
2018-05-09T07:24:14.195Z,23.3
2018-05-09T07:25:04.425Z,23.3
2018-05-09T07:25:54.293Z,23.3
2018-05-09T07:26:44.889Z,23.3
2018-05-09T07:27:34.672Z,23.3
2018-05-09T07:28:24.775Z,23.3
2018-05-09T07:29:14.548Z,23.3
2018-05-09T07:30:04.336Z,23.3
2018-05-09T07:30:55.219Z,23.3
2018-05-09T07:31:44.685Z,23.3
2018-05-09T07:32:35.337Z,23.3
2018-05-09T07:33:24.933Z,23.3
2018-05-09T07:34:15.214Z,23.3
2018-05-09T07:35:05.571Z,23.3
2018-05-09T07:35:54.954Z,23.3
2018-05-09T07:36:45.230Z,23.3
2018-05-09T07:37:35.718Z,23.4
2018-05-09T07:38:24.980Z,23.4
2018-05-09T07:39:14.810Z,23.4
2018-05-09T07:40:05.972Z,23.4
2018-05-09T07:40:55.803Z,23.4
2018-05-09T07:41:45.298Z,23.4
2018-05-09T07:42:35.833Z,23.4
2018-05-09T07:43:25.886Z,23.4
2018-05-09T07:44:15.007Z,23.4
2018-05-09T07:45:06.072Z,23.4
2018-05-09T07:45:55.823Z,23.4
2018-05-09T07:46:46.161Z,23.4
2018-05-09T07:47:36.725Z,23.4
2018-05-09T07:48:25.760Z,23.4
2018-05-09T07:49:15.302Z,23.4
2018-05-09T07:50:06.216Z,23.4
2018-05-09T07:50:56.541Z,23.4
2018-05-09T07:51:46.266Z,23.4
2018-05-09T07:52:36.608Z,23.4
2018-05-09T07:53:26.479Z,23.4
2018-05-09T07:54:16.541Z,23.4
2018-05-09T07:55:06.337Z,23.4
2018-05-09T07:55:57.125Z,23.4
2018-05-09T07:56:47.130Z,23.4
2018-05-09T07:57:36.030Z,23.4
2018-05-09T07:58:27.085Z,23.4
2018-05-09T07:59:17.115Z,23.4
2018-05-09T08:00:07.510Z,23.4
2018-05-09T08:00:56.929Z,23.3
2018-05-09T08:01:47.310Z,23.3
2018-05-09T08:02:37.109Z,23.2
2018-05-09T08:03:26.254Z,23.1
2018-05-09T08:04:17.261Z,23.1
2018-05-09T08:05:07.392Z,23
2018-05-09T08:05:57.063Z,23
2018-05-09T08:06:47.230Z,23
2018-05-09T08:07:37.465Z,23
2018-05-09T08:08:28.126Z,23
2018-05-09T08:09:18.141Z,22.9
2018-05-09T08:10:07.713Z,22.9
2018-05-09T08:10:58.025Z,22.9
2018-05-09T08:11:48.365Z,22.9
2018-05-09T08:12:37.099Z,22.8
2018-05-09T08:13:27.657Z,22.8
2018-05-09T08:14:17.235Z,22.8
2018-05-09T08:15:07.567Z,22.8
2018-05-09T08:15:57.457Z,22.8
2018-05-09T08:16:47.639Z,22.7
2018-05-09T08:17:38.289Z,22.7
2018-05-09T08:18:28.191Z,22.6
2018-05-09T08:19:18.686Z,22.6
2018-05-09T08:20:08.264Z,22.6
2018-05-09T08:20:59.057Z,22.6
2018-05-09T08:21:49.142Z,22.6
2018-05-09T08:22:38.643Z,22.6
2018-05-09T08:23:29.396Z,22.6
2018-05-09T08:24:19.335Z,22.7
2018-05-09T08:25:09.669Z,22.7
2018-05-09T08:25:59.445Z,22.7
2018-05-09T08:26:47.894Z,22.7
2018-05-09T08:27:39.085Z,22.8
2018-05-09T08:28:28.425Z,22.8
2018-05-09T08:29:19.716Z,22.8
2018-05-09T08:30:09.925Z,22.8
2018-05-09T08:30:59.102Z,22.8
2018-05-09T08:31:48.815Z,22.8
2018-05-09T08:32:40.030Z,22.8
2018-05-09T08:33:29.778Z,22.7
2018-05-09T08:34:19.865Z,22.7
2018-05-09T08:35:10.197Z,22.7
2018-05-09T08:36:00.252Z,22.8
2018-05-09T08:36:50.444Z,22.8
2018-05-09T08:37:40.159Z,22.8
2018-05-09T08:38:29.821Z,22.8
2018-05-09T08:39:20.222Z,22.8
2018-05-09T08:40:10.657Z,22.8
2018-05-09T08:41:00.668Z,22.8
2018-05-09T08:41:50.420Z,22.8
2018-05-09T08:42:40.533Z,22.8
2018-05-09T08:43:31.835Z,22.8
2018-05-09T08:44:20.326Z,22.8
2018-05-09T08:45:10.717Z,22.8
2018-05-09T08:45:59.890Z,22.8
2018-05-09T08:46:50.488Z,22.8
2018-05-09T08:47:40.834Z,22.8
2018-05-09T08:48:30.930Z,22.8
2018-05-09T08:49:22.168Z,22.9
2018-05-09T08:50:11.319Z,22.8
2018-05-09T08:51:01.372Z,22.9
2018-05-09T08:51:51.194Z,22.9
2018-05-09T08:52:41.523Z,22.9
2018-05-09T08:53:31.616Z,22.9
2018-05-09T08:54:21.386Z,22.9
2018-05-09T08:55:11.426Z,22.9
2018-05-09T08:56:01.220Z,22.9
2018-05-09T08:56:51.586Z,22.9
2018-05-09T08:57:41.366Z,22.9
2018-05-09T08:58:32.010Z,22.9
2018-05-09T08:59:21.766Z,23
2018-05-09T09:00:11.288Z,23
2018-05-09T09:01:01.911Z,23
2018-05-09T09:01:50.126Z,23
2018-05-09T09:02:41.466Z,23.1
2018-05-09T09:03:32.370Z,23.1
2018-05-09T09:04:22.510Z,23.1
2018-05-09T09:05:11.393Z,23.1
2018-05-09T09:06:02.574Z,23.1
2018-05-09T09:06:52.335Z,23.1
2018-05-09T09:07:42.705Z,23.1
2018-05-09T09:08:32.731Z,23.1
2018-05-09T09:09:22.028Z,23.1
2018-05-09T09:10:12.135Z,23.1
2018-05-09T09:11:02.185Z,23.1
2018-05-09T09:11:52.728Z,23.1
2018-05-09T09:12:42.794Z,23.1
2018-05-09T09:13:32.845Z,23.1
2018-05-09T09:14:22.798Z,23.2
2018-05-09T09:15:12.960Z,23.1
2018-05-09T09:16:02.787Z,23.2
2018-05-09T09:16:53.074Z,23.2
2018-05-09T09:17:43.166Z,23.2
2018-05-09T09:18:33.808Z,23.2
2018-05-09T09:19:23.051Z,23.2
2018-05-09T09:20:13.741Z,23.2
2018-05-09T09:21:03.668Z,23.2
2018-05-09T09:21:53.859Z,23.2
2018-05-09T09:22:43.619Z,23.2
2018-05-09T09:23:33.350Z,23.2
2018-05-09T09:24:22.872Z,23.2
2018-05-09T09:25:12.919Z,23.2
2018-05-09T09:26:03.805Z,23.2
2018-05-09T09:26:54.145Z,23.3
2018-05-09T09:27:43.409Z,23.3
2018-05-09T09:28:33.992Z,23.3
2018-05-09T09:29:24.241Z,23.3
2018-05-09T09:30:14.483Z,23.3
2018-05-09T09:31:04.272Z,23.3
2018-05-09T09:31:54.309Z,23.3
2018-05-09T09:32:44.358Z,23.3
2018-05-09T09:33:34.448Z,23.3
2018-05-09T09:34:24.199Z,23.3
2018-05-09T09:35:14.022Z,23.3
2018-05-09T09:36:04.091Z,23.3
2018-05-09T09:36:54.692Z,23.3
2018-05-09T09:37:44.801Z,23.3
2018-05-09T09:38:34.816Z,23.3
2018-05-09T09:39:25.225Z,23.3
2018-05-09T09:40:15.292Z,23.3
2018-05-09T09:41:05.081Z,23.3
2018-05-09T09:41:55.443Z,23.3
2018-05-09T09:42:44.822Z,23.3
2018-05-09T09:43:35.451Z,23.3
2018-05-09T09:44:25.047Z,23.3
2018-05-09T09:45:15.275Z,23.3
2018-05-09T09:46:05.079Z,23.3
2018-05-09T09:46:55.707Z,23.3
2018-05-09T09:47:45.488Z,23.3
2018-05-09T09:48:35.589Z,23.3
2018-05-09T09:49:25.942Z,23.3
2018-05-09T09:50:15.937Z,23.3
2018-05-09T09:51:05.750Z,23.3
2018-05-09T09:51:55.601Z,23.3
2018-05-09T09:52:45.868Z,23.3
2018-05-09T09:53:36.254Z,23.3
2018-05-09T09:54:25.526Z,23.3
2018-05-09T09:55:16.086Z,23.3
2018-05-09T09:56:05.313Z,23.3
2018-05-09T09:56:56.464Z,23.3
2018-05-09T09:57:45.979Z,23.4
2018-05-09T09:58:36.394Z,23.3
2018-05-09T09:59:26.799Z,23.3
2018-05-09T10:00:15.890Z,23.4
2018-05-09T10:01:06.819Z,23.4
2018-05-09T10:01:56.851Z,23.4
2018-05-09T10:02:46.648Z,23.4
2018-05-09T10:03:36.721Z,23.4
2018-05-09T10:04:27.143Z,23.4
2018-05-09T10:05:17.260Z,23.4
2018-05-09T10:06:06.644Z,23.4
2018-05-09T10:06:57.266Z,23.4
2018-05-09T10:07:47.288Z,23.4
2018-05-09T10:08:36.815Z,23.4
2018-05-09T10:09:27.153Z,23.4
2018-05-09T10:10:16.939Z,23.4
2018-05-09T10:11:06.721Z,23.4
2018-05-09T10:11:57.055Z,23.4
2018-05-09T10:12:47.435Z,23.4
2018-05-09T10:13:37.767Z,23.4
2018-05-09T10:14:27.843Z,23.4
2018-05-09T10:15:17.308Z,23.4
2018-05-09T10:16:08.982Z,23.4
2018-05-09T10:16:57.738Z,23.4
2018-05-09T10:17:47.535Z,23.4
2018-05-09T10:18:38.115Z,23.4
2018-05-09T10:19:27.901Z,23.4
2018-05-09T10:20:18.296Z,23.4
2018-05-09T10:21:07.594Z,23.4
2018-05-09T10:21:58.124Z,23.4
2018-05-09T10:22:48.479Z,23.4
2018-05-09T10:23:38.223Z,23.4
2018-05-09T10:24:28.026Z,23.4
2018-05-09T10:25:17.883Z,23.4
2018-05-09T10:26:08.818Z,23.4
2018-05-09T10:26:58.293Z,23.4
2018-05-09T10:27:48.583Z,23.4
2018-05-09T10:28:38.630Z,23.4
2018-05-09T10:29:28.718Z,23.4
2018-05-09T10:30:18.198Z,23.4
2018-05-09T10:31:08.926Z,23.4
2018-05-09T10:31:59.046Z,23.4
2018-05-09T10:32:48.960Z,23.4
2018-05-09T10:33:38.517Z,23.4
2018-05-09T10:34:29.435Z,23.4
2018-05-09T10:35:18.645Z,23.4
2018-05-09T10:36:08.955Z,23.4
2018-05-09T10:36:58.533Z,23.4
2018-05-09T10:37:49.343Z,23.4
2018-05-09T10:38:39.695Z,23.4
2018-05-09T10:39:28.722Z,23.4
2018-05-09T10:40:19.528Z,23.4
2018-05-09T10:41:09.864Z,23.4
2018-05-09T10:41:59.985Z,23.4
2018-05-09T10:42:49.441Z,23.4
2018-05-09T10:43:39.768Z,23.4
2018-05-09T10:44:30.135Z,23.4
2018-05-09T10:45:20.253Z,23.4
2018-05-09T10:46:09.737Z,23.4
2018-05-09T10:46:59.782Z,23.4
2018-05-09T10:47:49.826Z,23.4
2018-05-09T10:48:39.641Z,23.4
2018-05-09T10:49:30.229Z,23.4
2018-05-09T10:50:20.296Z,23.4
2018-05-09T10:51:10.104Z,23.4
2018-05-09T10:52:00.465Z,23.4
2018-05-09T10:52:50.497Z,23.4
2018-05-09T10:53:40.571Z,23.4
2018-05-09T10:54:30.666Z,23.4
2018-05-09T10:55:20.953Z,23.5
2018-05-09T10:56:11.009Z,23.4
2018-05-09T10:57:00.805Z,23.4
2018-05-09T10:57:50.600Z,23.5
2018-05-09T10:58:40.941Z,23.4
2018-05-09T10:59:31.353Z,23.4
2018-05-09T11:00:21.086Z,23.4
2018-05-09T11:01:10.600Z,23.4
2018-05-09T11:02:01.213Z,23.4
2018-05-09T11:02:50.689Z,23.4
2018-05-09T11:03:41.350Z,23.5
2018-05-09T11:04:31.397Z,23.4
2018-05-09T11:05:21.463Z,23.5
2018-05-09T11:06:11.255Z,23.4
2018-05-09T11:07:01.327Z,23.4
2018-05-09T11:07:51.131Z,23.5
2018-05-09T11:08:41.172Z,23.4
2018-05-09T11:09:31.799Z,23.4
2018-05-09T11:10:21.607Z,23.5
2018-05-09T11:11:11.644Z,23.5
2018-05-09T11:12:02.285Z,23.5
2018-05-09T11:12:52.311Z,23.5
2018-05-09T11:13:42.407Z,23.5
2018-05-09T11:14:32.454Z,23.5
2018-05-09T11:15:22.514Z,23.5
2018-05-09T11:16:11.999Z,23.5
2018-05-09T11:17:02.352Z,23.5
2018-05-09T11:17:51.840Z,23.5
2018-05-09T11:18:42.213Z,23.5
2018-05-09T11:19:32.099Z,23.5
2018-05-09T11:20:22.065Z,23.5
2018-05-09T11:21:12.961Z,23.5
2018-05-09T11:22:02.802Z,23.5
2018-05-09T11:22:53.175Z,23.5
2018-05-09T11:23:42.940Z,23.5
2018-05-09T11:24:33.944Z,23.5
2018-05-09T11:25:22.712Z,23.5
2018-05-09T11:26:13.070Z,23.5
2018-05-09T11:27:03.128Z,23.5
2018-05-09T11:27:52.920Z,23.5
2018-05-09T11:28:43.055Z,23.5
2018-05-09T11:29:33.315Z,23.5
2018-05-09T11:30:23.112Z,23.5
2018-05-09T11:31:13.470Z,23.5
2018-05-09T11:32:03.323Z,23.5
2018-05-09T11:32:53.613Z,23.6
2018-05-09T11:33:43.676Z,23.5
2018-05-09T11:34:34.073Z,23.6
2018-05-09T11:35:24.037Z,23.5
2018-05-09T11:36:13.394Z,23.5
2018-05-09T11:37:03.909Z,23.6
2018-05-09T11:37:53.727Z,23.6
2018-05-09T11:38:44.346Z,23.5
2018-05-09T11:39:33.611Z,23.6
2018-05-09T11:40:24.160Z,23.5
2018-05-09T11:41:14.220Z,23.6
2018-05-09T11:42:04.329Z,23.6
2018-05-09T11:42:54.358Z,23.6
2018-05-09T11:43:44.728Z,23.6
2018-05-09T11:44:34.797Z,23.6
2018-05-09T11:45:24.596Z,23.6
2018-05-09T11:46:14.958Z,23.6
2018-05-09T11:47:03.880Z,23.6
2018-05-09T11:47:54.716Z,23.6
2018-05-09T11:48:44.524Z,23.6
2018-05-09T11:49:34.052Z,23.6
2018-05-09T11:50:25.236Z,23.6
2018-05-09T11:51:15.032Z,23.6
2018-05-09T11:52:05.097Z,23.6
2018-05-09T11:52:54.688Z,23.6
2018-05-09T11:53:45.527Z,23.6
2018-05-09T11:54:35.248Z,23.6
2018-05-09T11:55:24.797Z,23.6
2018-05-09T11:56:15.124Z,23.6
2018-05-09T11:57:05.424Z,23.6
2018-05-09T11:57:55.572Z,23.6
2018-05-09T11:58:45.552Z,23.6
2018-05-09T11:59:35.920Z,23.6
2018-05-09T12:00:25.698Z,23.6
2018-05-09T12:01:16.086Z,23.6
2018-05-09T12:02:05.886Z,23.6
2018-05-09T12:02:55.069Z,23.6
2018-05-09T12:03:46.008Z,23.6
2018-05-09T12:04:36.027Z,23.6
2018-05-09T12:05:25.840Z,23.6
2018-05-09T12:06:16.012Z,23.6
2018-05-09T12:07:06.558Z,23.7
2018-05-09T12:07:56.076Z,23.6
2018-05-09T12:08:46.115Z,23.7
2018-05-09T12:09:35.896Z,23.7
2018-05-09T12:10:28.023Z,23.7
2018-05-09T12:11:16.863Z,23.7
2018-05-09T12:12:06.608Z,23.7
2018-05-09T12:12:56.452Z,23.7
2018-05-09T12:13:47.059Z,23.7
2018-05-09T12:14:35.977Z,23.7
2018-05-09T12:15:26.623Z,23.7
2018-05-09T12:16:16.371Z,23.8
2018-05-09T12:17:07.270Z,23.7
2018-05-09T12:17:57.340Z,23.8
2018-05-09T12:18:47.171Z,23.8
2018-05-09T12:19:36.371Z,23.8
2018-05-09T12:20:27.110Z,23.8
2018-05-09T12:21:16.817Z,23.8
2018-05-09T12:22:07.481Z,23.8
2018-05-09T12:22:57.557Z,23.8
2018-05-09T12:23:47.058Z,23.8
2018-05-09T12:24:38.749Z,23.8
2018-05-09T12:25:27.100Z,23.8
2018-05-09T12:26:17.767Z,23.8
2018-05-09T12:27:07.592Z,23.8
2018-05-09T12:27:57.850Z,23.8
2018-05-09T12:28:48.217Z,23.8
2018-05-09T12:29:37.795Z,23.8
2018-05-09T12:30:28.071Z,23.8
2018-05-09T12:31:18.131Z,23.8
2018-05-09T12:32:07.889Z,23.8
2018-05-09T12:32:58.536Z,23.8
2018-05-09T12:33:48.334Z,23.8
2018-05-09T12:34:38.762Z,23.8
2018-05-09T12:35:28.133Z,23.8
2018-05-09T12:36:18.063Z,23.8
2018-05-09T12:37:08.850Z,23.8
2018-05-09T12:37:58.877Z,23.8
2018-05-09T12:38:48.749Z,23.8
2018-05-09T12:39:38.492Z,23.8
2018-05-09T12:40:29.107Z,23.8
2018-05-09T12:41:18.923Z,23.8
2018-05-09T12:42:08.990Z,23.8
2018-05-09T12:42:58.766Z,23.8
2018-05-09T12:43:49.118Z,23.8
2018-05-09T12:44:38.914Z,23.8
2018-05-09T12:45:29.229Z,23.8
2018-05-09T12:46:19.236Z,23.8
2018-05-09T12:47:09.319Z,23.8
2018-05-09T12:47:59.719Z,23.8
2018-05-09T12:48:52.318Z,23.8
2018-05-09T12:49:39.010Z,23.8
2018-05-09T12:50:29.408Z,23.8
2018-05-09T12:51:18.840Z,23.8
2018-05-09T12:52:09.505Z,23.8
2018-05-09T12:52:58.929Z,23.8
2018-05-09T12:53:50.169Z,23.8
2018-05-09T12:54:41.158Z,23.8
2018-05-09T12:55:30.284Z,23.8
2018-05-09T12:56:20.037Z,23.8
2018-05-09T12:57:10.369Z,23.8
2018-05-09T12:58:00.453Z,23.8
2018-05-09T12:58:50.256Z,23.8
2018-05-09T12:59:40.551Z,23.9
2018-05-09T13:00:31.987Z,23.9
2018-05-09T13:01:19.883Z,23.8
2018-05-09T13:02:10.233Z,23.8
2018-05-09T13:03:00.054Z,23.8
2018-05-09T13:03:50.361Z,23.8
2018-05-09T13:04:41.035Z,23.8
2018-05-09T13:05:31.043Z,23.8
2018-05-09T13:06:21.161Z,23.9
2018-05-09T13:07:10.967Z,23.8
2018-05-09T13:07:59.919Z,23.8
2018-05-09T13:08:50.784Z,23.9
2018-05-09T13:09:40.839Z,23.9